Time;durP1;ratioP1;P1;durP2;ratioP2;P2;SDS_P1;SDS_P2;PMS_P1;PMS_P2;Temp;Humidity;BMP_temperature;BMP_pressure;BME280_temperature;BME280_humidity;BME280_pressure;Samples;Min_cycle;Max_cycle;Signal;HPM_P1;HPM_P2
2022/06/23 00:00:03;;;;;;;7.18;2.30;;;13.40;99.90;;;;;;5013221;28;20401;-83
2022/06/23 00:02:33;;;;;;;7.53;2.20;;;13.50;99.90;;;;;;5015212;28;20772;-82
2022/06/23 00:05:07;;;;;;;5.60;1.95;;;13.50;99.90;;;;;;5015638;28;20918;-83
2022/06/23 00:07:38;;;;;;;6.45;2.05;;;13.40;99.90;;;;;;5018533;28;20891;-82
2022/06/23 00:10:19;;;;;;;7.18;2.20;;;13.30;99.90;;;;;;5020787;28;20768;-83
2022/06/23 00:12:47;;;;;;;6.72;2.47;;;13.40;99.90;;;;;;5016690;28;20429;-82
2022/06/23 00:15:19;;;;;;;7.43;2.20;;;13.40;99.90;;;;;;5027382;28;20420;-83
2022/06/23 00:17:55;;;;;;;4.32;2.30;;;13.30;99.90;;;;;;5018455;28;20407;-82
2022/06/23 00:20:46;;;;;;;7.53;2.40;;;13.30;99.90;;;;;;5011373;28;20742;-83
2022/06/23 00:23:27;;;;;;;6.78;2.50;;;13.30;99.90;;;;;;5013264;28;20510;-82
2022/06/23 00:26:07;;;;;;;5.70;2.40;;;13.30;99.90;;;;;;5018101;28;20444;-82
2022/06/23 00:28:57;;;;;;;5.95;2.17;;;13.20;99.90;;;;;;5021287;28;20391;-83
2022/06/23 00:31:29;;;;;;;7.10;2.45;;;13.20;99.90;;;;;;5015016;28;20405;-83
2022/06/23 00:34:02;;;;;;;7.05;2.45;;;13.10;99.90;;;;;;5018265;28;20429;-82
2022/06/23 00:36:46;;;;;;;5.10;2.00;;;13.10;99.90;;;;;;5013991;28;20433;-81
2022/06/23 00:39:38;;;;;;;5.03;2.22;;;13.10;99.90;;;;;;5001629;28;20825;-84
2022/06/23 00:42:21;;;;;;;6.72;2.47;;;13.00;99.90;;;;;;5026830;28;20784;-83
2022/06/23 00:45:12;;;;;;;7.57;2.50;;;13.10;99.90;;;;;;5040900;28;20397;-82
2022/06/23 00:48:08;;;;;;;7.20;2.67;;;13.00;99.90;;;;;;5025722;28;20408;-82
2022/06/23 00:50:47;;;;;;;6.07;2.20;;;12.90;99.90;;;;;;5021712;28;20406;-80
2022/06/23 00:53:22;;;;;;;7.10;2.53;;;12.90;99.90;;;;;;5019635;28;20820;-82
2022/06/23 00:55:54;;;;;;;7.72;2.10;;;12.90;99.90;;;;;;5023091;28;20420;-82
2022/06/23 00:58:49;;;;;;;6.53;2.42;;;12.90;99.90;;;;;;5020773;28;20429;-82
2022/06/23 01:01:26;;;;;;;5.88;2.05;;;12.90;99.90;;;;;;5017832;28;20406;-83
2022/06/23 01:04:06;;;;;;;5.07;2.00;;;12.80;99.90;;;;;;5010415;28;20387;-82
2022/06/23 01:06:45;;;;;;;7.00;2.35;;;12.80;99.90;;;;;;5021103;28;20401;-82
2022/06/23 01:09:22;;;;;;;5.93;2.30;;;12.80;99.90;;;;;;5029600;28;20399;-82
2022/06/23 01:12:14;;;;;;;7.72;2.30;;;12.70;99.90;;;;;;5037994;28;20390;-83
2022/06/23 01:15:03;;;;;;;8.32;2.05;;;12.60;99.90;;;;;;5021739;28;20444;-82
2022/06/23 01:18:01;;;;;;;7.28;2.50;;;12.70;99.90;;;;;;5024508;28;20410;-82
2022/06/23 01:21:01;;;;;;;4.23;2.07;;;12.70;99.90;;;;;;5025671;28;20433;-83
2022/06/23 01:23:29;;;;;;;4.85;2.20;;;12.60;99.90;;;;;;5014532;28;20392;-82
2022/06/23 01:26:10;;;;;;;8.23;2.10;;;12.70;99.90;;;;;;5016264;28;20888;-83
2022/06/23 01:28:40;;;;;;;6.93;2.10;;;12.50;99.90;;;;;;5023900;28;20397;-83
2022/06/23 01:31:29;;;;;;;4.93;2.20;;;12.40;99.90;;;;;;5002885;28;20990;-83
2022/06/23 01:33:58;;;;;;;6.53;2.33;;;12.50;99.90;;;;;;5021146;28;20405;-82
2022/06/23 01:36:38;;;;;;;5.95;2.00;;;12.50;99.90;;;;;;5021658;28;20480;-82
2022/06/23 01:39:15;;;;;;;5.90;2.22;;;12.50;99.90;;;;;;5022482;28;20734;-83
2022/06/23 01:41:42;;;;;;;2.90;1.60;;;12.50;99.90;;;;;;5034158;28;20432;-81
2022/06/23 01:44:16;;;;;;;3.95;1.98;;;12.50;99.90;;;;;;5031547;28;20398;-82
2022/06/23 01:46:49;;;;;;;9.38;2.15;;;12.30;99.90;;;;;;5014706;28;20405;-82
2022/06/23 01:49:27;;;;;;;5.03;2.22;;;12.30;99.90;;;;;;5018423;28;20407;-82
2022/06/23 01:52:05;;;;;;;5.18;1.95;;;12.30;99.90;;;;;;5033071;28;20452;-82
2022/06/23 01:54:34;;;;;;;7.20;2.30;;;12.30;99.90;;;;;;4998551;28;20950;-81
2022/06/23 01:57:08;;;;;;;7.22;2.20;;;12.40;99.90;;;;;;5020042;28;20753;-81
2022/06/23 02:00:00;;;;;;;6.82;2.17;;;12.30;99.90;;;;;;5017254;28;20394;-83
2022/06/23 02:02:39;;;;;;;4.07;2.00;;;12.30;99.90;;;;;;5016499;28;20399;-81
2022/06/23 02:05:20;;;;;;;7.25;2.22;;;12.30;99.90;;;;;;5001435;28;20406;-83
2022/06/23 02:08:34;;;;;;;6.85;2.40;;;12.30;99.90;;;;;;5026361;28;20432;-83
2022/06/23 02:11:17;;;;;;;7.50;1.80;;;12.20;99.90;;;;;;5019781;28;20403;-82
2022/06/23 02:13:55;;;;;;;3.50;1.90;;;12.20;99.90;;;;;;5033101;28;20410;-81
2022/06/23 02:16:58;;;;;;;5.15;1.83;;;12.30;99.90;;;;;;5016374;28;20407;-81
2022/06/23 02:19:47;;;;;;;6.82;2.05;;;12.30;99.90;;;;;;5009921;28;20420;-82
2022/06/23 02:22:27;;;;;;;3.40;1.70;;;12.20;99.90;;;;;;5017872;28;20847;-82
2022/06/23 02:25:09;;;;;;;6.32;2.10;;;12.10;99.90;;;;;;5022312;28;20497;-81
2022/06/23 02:27:59;;;;;;;3.95;2.10;;;12.20;99.90;;;;;;5019362;28;20407;-83
2022/06/23 02:31:00;;;;;;;5.53;1.90;;;12.20;99.90;;;;;;5019712;28;20764;-83
2022/06/23 02:33:36;;;;;;;5.88;2.08;;;12.20;99.90;;;;;;5018880;28;20411;-83
2022/06/23 02:36:18;;;;;;;5.15;2.10;;;12.10;99.90;;;;;;5018564;28;20769;-82
2022/06/23 02:38:56;;;;;;;5.80;2.00;;;12.10;99.90;;;;;;5020588;28;20448;-82
2022/06/23 02:41:41;;;;;;;4.43;1.80;;;12.10;99.90;;;;;;5018461;28;20403;-82
2022/06/23 02:44:28;;;;;;;4.90;2.00;;;12.10;99.90;;;;;;5017504;28;20403;-82
2022/06/23 02:47:15;;;;;;;5.07;1.77;;;12.10;99.90;;;;;;5038847;28;20407;-82
2022/06/23 02:50:09;;;;;;;4.30;1.70;;;12.00;99.90;;;;;;5016499;28;20405;-83
2022/06/23 02:52:56;;;;;;;6.05;2.08;;;12.00;99.90;;;;;;5024047;28;20453;-82
2022/06/23 02:55:46;;;;;;;4.97;2.30;;;12.00;99.90;;;;;;5015673;28;20793;-82
2022/06/23 02:58:28;;;;;;;5.18;2.00;;;12.00;99.90;;;;;;5034181;28;20486;-82
2022/06/23 03:01:00;;;;;;;3.40;1.80;;;12.00;99.90;;;;;;5015933;28;20422;-82
2022/06/23 03:03:28;;;;;;;4.18;1.92;;;12.00;99.90;;;;;;5027667;28;20389;-82
2022/06/23 03:06:03;;;;;;;5.55;1.92;;;12.10;99.90;;;;;;5001213;28;20849;-82
2022/06/23 03:08:48;;;;;;;4.87;1.80;;;12.10;99.90;;;;;;5019548;28;20499;-82
2022/06/23 03:11:52;;;;;;;5.68;2.05;;;12.00;99.90;;;;;;5014839;28;20406;-82
2022/06/23 03:14:41;;;;;;;5.47;2.05;;;12.10;99.90;;;;;;4978289;28;20449;-82
2022/06/23 03:17:12;;;;;;;4.87;1.73;;;12.00;99.90;;;;;;5026324;28;20484;-83
2022/06/23 03:20:05;;;;;;;3.47;1.77;;;12.00;99.90;;;;;;5012622;28;20929;-82
2022/06/23 03:22:57;;;;;;;5.22;1.90;;;12.00;99.90;;;;;;5012266;28;20429;-82
2022/06/23 03:25:31;;;;;;;7.40;1.80;;;12.00;99.90;;;;;;5015005;28;20490;-83
2022/06/23 03:28:13;;;;;;;4.27;2.00;;;12.00;99.90;;;;;;5018565;28;20410;-82
2022/06/23 03:30:50;;;;;;;4.68;2.05;;;12.00;99.90;;;;;;5020550;28;20910;-81
2022/06/23 03:33:37;;;;;;;3.88;1.80;;;12.10;99.90;;;;;;5015092;28;20801;-82
2022/06/23 03:36:39;;;;;;;5.07;1.75;;;12.10;99.90;;;;;;5000558;28;20461;-84
2022/06/23 03:42:39;;;;;;;4.70;1.70;;;12.10;99.90;;;;;;5002180;28;20471;-82
2022/06/23 03:45:19;;;;;;;3.10;1.73;;;12.00;99.90;;;;;;5030683;28;20494;-83
2022/06/23 03:47:55;;;;;;;5.30;1.75;;;12.00;99.90;;;;;;5015090;28;20411;-83
2022/06/23 03:50:33;;;;;;;4.43;1.98;;;12.00;99.90;;;;;;5022743;28;20496;-82
2022/06/23 03:53:09;;;;;;;4.18;1.90;;;12.10;99.90;;;;;;5024806;28;20451;-83
2022/06/23 03:55:54;;;;;;;5.07;1.83;;;12.10;99.90;;;;;;5017702;28;20419;-83
2022/06/23 03:58:27;;;;;;;3.88;1.83;;;12.10;99.90;;;;;;5019344;28;20411;-83
2022/06/23 04:01:12;;;;;;;4.05;1.83;;;12.10;99.90;;;;;;5020710;28;20403;-82
2022/06/23 04:04:05;;;;;;;4.15;1.70;;;12.10;99.90;;;;;;5016239;28;20881;-82
2022/06/23 04:06:40;;;;;;;5.70;1.80;;;12.10;99.90;;;;;;5022457;28;20387;-84
2022/06/23 04:09:16;;;;;;;3.92;1.65;;;12.10;99.90;;;;;;5022494;28;20482;-83
2022/06/23 04:11:46;;;;;;;6.45;1.70;;;12.20;99.90;;;;;;5039270;28;20774;-85
2022/06/23 04:14:29;;;;;;;6.60;1.90;;;12.20;99.90;;;;;;5019028;28;20412;-85
2022/06/23 04:17:20;;;;;;;4.73;1.77;;;12.20;99.90;;;;;;5014859;28;20438;-85
2022/06/23 04:19:52;;;;;;;5.90;2.00;;;12.20;99.90;;;;;;5021479;28;20403;-85
2022/06/23 04:22:35;;;;;;;3.22;1.60;;;12.20;99.90;;;;;;5011908;28;20403;-84
2022/06/23 04:25:07;;;;;;;4.20;1.95;;;12.30;99.90;;;;;;5019437;28;20395;-86
2022/06/23 04:27:50;;;;;;;6.50;1.90;;;12.30;99.90;;;;;;5036087;28;20496;-87
2022/06/23 04:30:28;;;;;;;4.43;1.80;;;12.30;99.90;;;;;;5019373;28;20437;-87
2022/06/23 04:32:58;;;;;;;4.18;1.90;;;12.40;99.90;;;;;;5020137;28;20412;-87
2022/06/23 04:35:39;;;;;;;5.90;1.80;;;12.50;99.90;;;;;;5029578;28;20407;-85
2022/06/23 04:38:12;;;;;;;5.28;2.03;;;12.50;99.90;;;;;;5025662;28;20922;-86
2022/06/23 04:40:43;;;;;;;6.30;2.42;;;12.60;99.90;;;;;;5010102;28;20409;-85
2022/06/23 04:43:18;;;;;;;4.30;2.03;;;12.60;99.90;;;;;;5028954;28;20389;-86
2022/06/23 04:45:55;;;;;;;4.37;2.10;;;12.70;99.90;;;;;;5009045;28;20764;-86
2022/06/23 04:48:35;;;;;;;7.80;2.40;;;12.80;99.90;;;;;;5026949;28;20409;-86
2022/06/23 04:51:23;;;;;;;5.45;2.40;;;12.90;99.90;;;;;;5028258;28;20420;-85
2022/06/23 04:54:23;;;;;;;6.82;2.60;;;12.90;99.90;;;;;;5030210;28;20382;-87
2022/06/23 04:57:12;;;;;;;5.13;2.47;;;12.90;99.90;;;;;;5026910;28;20403;-86
2022/06/23 04:59:47;;;;;;;5.13;2.60;;;13.10;99.90;;;;;;5011651;28;20389;-86
2022/06/23 05:02:31;;;;;;;5.72;2.45;;;13.20;99.90;;;;;;5009364;28;20417;-86
2022/06/23 05:05:29;;;;;;;5.38;2.47;;;13.30;99.90;;;;;;5028663;28;20397;-85
2022/06/23 05:08:02;;;;;;;8.27;3.20;;;13.30;99.90;;;;;;5016933;28;20411;-86
2022/06/23 05:10:52;;;;;;;5.53;2.60;;;13.30;99.90;;;;;;5011135;28;20485;-85
2022/06/23 05:13:23;;;;;;;5.22;2.50;;;13.40;99.90;;;;;;5025175;28;20401;-86
2022/06/23 05:16:23;;;;;;;5.85;2.55;;;13.50;99.90;;;;;;5007286;28;20473;-87
2022/06/23 05:19:00;;;;;;;4.07;2.37;;;13.60;99.90;;;;;;5015231;28;20411;-86
2022/06/23 05:21:35;;;;;;;4.30;2.65;;;13.60;99.90;;;;;;5020439;28;20401;-85
2022/06/23 05:24:15;;;;;;;5.93;2.83;;;13.70;99.90;;;;;;5030323;28;20413;-86
2022/06/23 05:27:00;;;;;;;8.40;3.03;;;13.70;99.90;;;;;;5026045;28;20405;-86
2022/06/23 05:29:53;;;;;;;5.60;2.50;;;14.00;99.90;;;;;;5023324;28;20786;-86
2022/06/23 05:32:39;;;;;;;5.82;2.50;;;14.10;99.90;;;;;;5038688;28;20473;-85
2022/06/23 05:35:37;;;;;;;4.68;2.80;;;14.20;99.90;;;;;;5019393;28;20391;-86
2022/06/23 05:38:26;;;;;;;7.70;2.80;;;14.30;99.90;;;;;;5023409;28;20537;-86
2022/06/23 05:40:57;;;;;;;5.63;2.58;;;14.40;99.90;;;;;;5023505;28;20502;-86
2022/06/23 05:43:27;;;;;;;3.45;2.20;;;14.60;99.90;;;;;;5039959;28;20413;-86
2022/06/23 05:46:01;;;;;;;5.07;2.70;;;14.60;99.90;;;;;;5023095;28;20440;-86
2022/06/23 05:48:58;;;;;;;5.78;2.70;;;14.70;99.90;;;;;;5025330;28;20482;-84
2022/06/23 05:51:53;;;;;;;4.72;2.63;;;14.80;99.90;;;;;;5012140;28;20467;-86
2022/06/23 05:54:58;;;;;;;3.55;2.38;;;14.80;99.90;;;;;;5024316;28;20775;-84
2022/06/23 05:57:41;;;;;;;4.27;2.37;;;15.00;99.90;;;;;;5029085;28;20416;-84
2022/06/23 06:00:45;;;;;;;4.65;2.45;;;15.00;99.90;;;;;;5011856;28;20412;-85
2022/06/23 06:03:29;;;;;;;5.13;2.45;;;15.20;99.90;;;;;;5026519;28;20400;-86
2022/06/23 06:06:01;;;;;;;4.40;2.22;;;15.20;99.90;;;;;;5028224;28;20397;-87
2022/06/23 06:09:35;;;;;;;4.93;2.13;;;15.30;99.90;;;;;;5020283;28;20415;-84
2022/06/23 06:11:23;;;;;;;3.42;1.98;;;15.40;99.90;;;;;;5019889;28;20405;-86
2022/06/23 06:13:51;;;;;;;3.85;2.20;;;15.50;99.90;;;;;;5007277;28;20784;-85
2022/06/23 06:16:18;;;;;;;5.50;2.00;;;15.60;99.90;;;;;;5020975;28;20453;-86
2022/06/23 06:18:46;;;;;;;3.88;2.10;;;15.80;99.90;;;;;;5005021;28;20490;-85
2022/06/23 06:21:17;;;;;;;5.30;2.27;;;15.90;99.90;;;;;;5025261;28;20453;-85
2022/06/23 06:24:05;;;;;;;7.30;2.22;;;15.80;99.90;;;;;;5025673;28;20480;-86
2022/06/23 06:26:38;;;;;;;5.13;2.08;;;15.90;99.90;;;;;;5019351;28;20395;-85
2022/06/23 06:29:22;;;;;;;5.07;2.42;;;16.00;99.90;;;;;;5041298;28;20409;-86
2022/06/23 06:32:12;;;;;;;4.85;2.40;;;16.20;99.90;;;;;;5040829;28;20772;-84
2022/06/23 06:34:45;;;;;;;4.67;2.33;;;16.30;99.90;;;;;;5024558;28;21003;-85
2022/06/23 06:37:14;;;;;;;4.68;2.70;;;16.60;99.90;;;;;;5026202;28;20462;-86
2022/06/23 06:39:53;;;;;;;4.05;2.30;;;16.70;99.90;;;;;;5023631;28;20486;-85
2022/06/23 06:42:30;;;;;;;5.43;2.60;;;16.60;99.90;;;;;;5021635;28;20399;-86
2022/06/23 06:45:08;;;;;;;6.32;2.60;;;16.80;99.90;;;;;;5035435;28;20817;-83
2022/06/23 06:47:38;;;;;;;4.68;2.00;;;16.90;99.90;;;;;;5034287;28;20407;-84
2022/06/23 06:50:15;;;;;;;3.90;1.95;;;17.10;99.90;;;;;;5018498;28;20778;-85
2022/06/23 06:52:45;;;;;;;4.47;1.92;;;17.00;99.90;;;;;;5012276;28;20864;-85
2022/06/23 06:55:22;;;;;;;2.97;1.80;;;17.00;99.90;;;;;;5020164;28;20403;-84
2022/06/23 06:57:54;;;;;;;3.83;1.52;;;17.00;99.90;;;;;;5040923;28;20475;-84
2022/06/23 07:00:30;;;;;;;2.88;1.70;;;16.80;99.90;;;;;;5023377;28;20429;-84
2022/06/23 07:03:02;;;;;;;3.10;1.75;;;16.60;99.90;;;;;;5017767;28;20495;-84
2022/06/23 07:05:33;;;;;;;4.45;2.00;;;16.90;99.90;;;;;;5008425;28;20488;-83
2022/06/23 07:08:13;;;;;;;4.45;1.67;;;17.10;99.90;;;;;;5013090;28;20858;-84
2022/06/23 07:10:52;;;;;;;3.50;1.97;;;17.40;99.90;;;;;;5025949;28;20407;-85
2022/06/23 07:13:49;;;;;;;2.35;1.60;;;17.40;99.90;;;;;;5026717;28;20410;-86
2022/06/23 07:16:22;;;;;;;4.53;1.90;;;17.40;99.90;;;;;;5007328;28;21000;-82
2022/06/23 07:19:17;;;;;;;2.45;1.80;;;17.50;99.90;;;;;;5025324;28;20908;-84
2022/06/23 07:22:07;;;;;;;3.70;1.85;;;17.50;99.90;;;;;;5010871;28;20445;-84
2022/06/23 07:24:54;;;;;;;5.75;2.20;;;17.70;99.90;;;;;;5019191;28;20797;-84
2022/06/23 07:27:34;;;;;;;4.13;1.83;;;17.60;99.90;;;;;;5021530;28;20408;-84
2022/06/23 07:30:22;;;;;;;3.30;1.80;;;17.60;99.90;;;;;;5015263;28;20947;-82
2022/06/23 07:33:18;;;;;;;2.30;1.80;;;17.80;99.90;;;;;;5021570;28;20776;-83
2022/06/23 07:36:11;;;;;;;4.15;1.95;;;17.90;99.90;;;;;;5017479;28;20387;-83
2022/06/23 07:39:10;;;;;;;4.38;2.00;;;18.20;99.90;;;;;;5002883;28;20409;-84
2022/06/23 07:41:46;;;;;;;4.45;2.00;;;18.20;99.90;;;;;;5006890;28;20399;-84
2022/06/23 07:44:33;;;;;;;4.20;1.92;;;18.10;99.90;;;;;;5005394;28;20392;-84
2022/06/23 07:47:01;;;;;;;5.45;2.05;;;18.20;99.90;;;;;;5004493;28;20499;-83
2022/06/23 07:49:31;;;;;;;4.00;1.90;;;18.40;99.90;;;;;;5009431;28;20399;-83
2022/06/23 07:52:00;;;;;;;3.15;1.70;;;18.20;99.90;;;;;;4999182;28;20405;-84
2022/06/23 07:54:36;;;;;;;2.83;1.80;;;18.20;99.90;;;;;;5022254;28;20953;-82
2022/06/23 07:57:04;;;;;;;9.70;7.43;;;18.60;99.90;;;;;;4999681;28;20898;-84
2022/06/23 07:59:52;;;;;;;2.58;1.70;;;18.50;99.90;;;;;;5004631;28;20834;-83
2022/06/23 08:02:31;;;;;;;3.60;1.70;;;18.70;99.90;;;;;;5032639;28;20890;-84
2022/06/23 08:05:12;;;;;;;3.65;1.73;;;18.70;99.90;;;;;;5004682;28;20786;-84
2022/06/23 08:07:40;;;;;;;4.00;2.13;;;18.70;99.90;;;;;;4997045;28;20397;-84
2022/06/23 08:10:13;;;;;;;3.55;1.73;;;18.50;99.90;;;;;;5039517;28;20387;-83
2022/06/23 08:12:53;;;;;;;3.50;1.60;;;18.60;99.90;;;;;;5004835;28;20400;-83
2022/06/23 08:18:43;;;;;;;5.68;1.50;;;18.90;99.90;;;;;;5001263;28;20465;-82
2022/06/23 08:21:27;;;;;;;4.32;1.88;;;19.00;99.90;;;;;;4996789;28;20446;-82
2022/06/23 08:24:03;;;;;;;4.05;1.88;;;19.10;99.90;;;;;;5001144;28;20399;-83
2022/06/23 08:26:34;;;;;;;4.68;1.80;;;19.10;99.90;;;;;;5001062;28;20833;-83
2022/06/23 08:29:06;;;;;;;3.47;1.70;;;19.10;99.90;;;;;;5023618;28;20957;-84
2022/06/23 08:35:47;;;;;;;4.10;2.00;;;19.00;99.90;;;;;;5002875;28;20458;-83
2022/06/23 08:38:21;;;;;;;3.33;1.80;;;19.10;99.90;;;;;;5008961;28;20606;-83
2022/06/23 08:41:13;;;;;;;2.75;1.90;;;19.20;99.90;;;;;;5023789;28;20444;-83
2022/06/23 08:43:52;;;;;;;3.38;1.85;;;19.30;99.90;;;;;;5025491;28;20924;-83
2022/06/23 08:46:40;;;;;;;5.53;2.00;;;19.30;99.90;;;;;;4994098;28;20802;-83
2022/06/23 08:49:20;;;;;;;3.58;1.85;;;19.30;99.90;;;;;;5031973;28;20403;-84
2022/06/23 08:51:50;;;;;;;3.83;2.10;;;19.50;99.90;;;;;;5031147;28;20405;-82
2022/06/23 08:54:28;;;;;;;4.05;1.92;;;19.40;99.90;;;;;;5036873;28;20429;-84
2022/06/23 08:57:33;;;;;;;5.60;1.98;;;19.40;99.90;;;;;;5009857;28;20865;-82
2022/06/23 09:00:36;;;;;;;5.63;2.10;;;19.60;99.90;;;;;;4979222;28;20458;-83
2022/06/23 09:03:41;;;;;;;3.28;1.98;;;19.50;99.90;;;;;;4997955;28;20471;-83
2022/06/23 09:06:32;;;;;;;2.83;1.63;;;19.60;99.90;;;;;;4991016;28;20931;-82
2022/06/23 09:09:32;;;;;;;6.20;3.72;;;19.60;99.90;;;;;;5035716;28;20400;-83
2022/06/23 09:12:24;;;;;;;3.80;2.10;;;19.80;99.90;;;;;;5012169;28;20418;-83
2022/06/23 09:15:14;;;;;;;3.97;2.03;;;20.00;99.90;;;;;;4996577;28;20405;-85
2022/06/23 09:18:04;;;;;;;3.97;2.05;;;19.90;99.90;;;;;;5006455;28;20406;-85
2022/06/23 09:20:50;;;;;;;3.58;1.90;;;20.00;99.90;;;;;;5034085;28;20405;-83
2022/06/23 09:24:11;;;;;;;4.80;2.00;;;20.00;99.90;;;;;;5012171;28;20544;-85
2022/06/23 09:26:54;;;;;;;4.43;2.00;;;20.10;99.90;;;;;;5031043;28;20438;-83
2022/06/23 09:29:43;;;;;;;4.10;2.20;;;20.00;99.90;;;;;;5005700;28;22738;-83
2022/06/23 09:32:27;;;;;;;4.70;1.92;;;20.00;99.90;;;;;;5035049;28;20522;-83
2022/06/23 09:35:35;;;;;;;6.28;2.40;;;19.90;99.90;;;;;;5004695;28;20867;-84
2022/06/23 09:38:11;;;;;;;3.50;1.87;;;20.10;99.90;;;;;;5020083;28;20912;-83
2022/06/23 09:40:45;;;;;;;5.55;1.83;;;20.20;99.90;;;;;;5001214;28;20825;-84
2022/06/23 09:43:50;;;;;;;3.72;1.90;;;20.30;99.90;;;;;;5006819;28;20455;-81
2022/06/23 09:46:45;;;;;;;5.70;1.90;;;20.30;99.90;;;;;;5036924;28;20410;-83
2022/06/23 09:53:32;;;;;;;6.63;2.45;;;20.60;99.90;;;;;;5010626;28;20369;-84
2022/06/23 09:56:12;;;;;;;4.15;1.98;;;20.70;99.90;;;;;;5010202;28;20411;-84
2022/06/23 09:58:51;;;;;;;4.53;1.90;;;20.80;99.90;;;;;;5033424;28;20439;-84
2022/06/23 10:01:34;;;;;;;6.97;2.22;;;20.80;99.90;;;;;;5018790;28;20387;-84
2022/06/23 10:04:48;;;;;;;4.40;2.17;;;20.90;99.90;;;;;;4996230;28;20437;-85
2022/06/23 10:07:47;;;;;;;4.18;2.10;;;21.00;99.90;;;;;;5033616;28;20417;-85
2022/06/23 10:10:22;;;;;;;7.93;4.00;;;20.90;99.90;;;;;;5032330;28;20424;-85
2022/06/23 10:13:02;;;;;;;3.45;2.20;;;20.80;99.90;;;;;;5035168;28;20407;-84
2022/06/23 10:16:18;;;;;;;3.60;2.28;;;20.90;99.90;;;;;;5027680;28;20407;-84
2022/06/23 10:19:22;;;;;;;4.13;2.10;;;20.90;99.90;;;;;;5002580;28;20834;-84
2022/06/23 10:22:22;;;;;;;4.47;2.17;;;21.10;99.90;;;;;;5036656;28;20408;-84
2022/06/23 10:25:11;;;;;;;5.70;2.45;;;21.00;99.90;;;;;;5031022;28;20400;-84
2022/06/23 10:28:00;;;;;;;4.18;2.40;;;20.80;99.90;;;;;;5024506;28;20404;-84
2022/06/23 10:30:46;;;;;;;4.40;2.42;;;21.00;99.90;;;;;;5013387;28;20491;-84
2022/06/23 10:33:34;;;;;;;4.38;2.38;;;21.10;99.90;;;;;;5005692;28;20407;-83
2022/06/23 10:36:20;;;;;;;6.28;2.75;;;20.90;99.90;;;;;;5004521;28;20398;-83
2022/06/23 10:39:11;;;;;;;5.82;2.75;;;20.70;99.90;;;;;;5010288;28;20411;-83
2022/06/23 10:42:07;;;;;;;4.07;2.10;;;20.80;99.90;;;;;;5015176;28;20404;-85
2022/06/23 10:49:35;;;;;;;4.63;2.40;;;21.20;99.90;;;;;;5000882;28;20883;-85
2022/06/23 10:52:34;;;;;;;3.35;2.28;;;21.30;99.90;;;;;;5004336;28;20399;-85
2022/06/23 10:55:18;;;;;;;5.55;2.47;;;21.20;99.90;;;;;;5008802;28;20404;-83
2022/06/23 10:57:58;;;;;;;4.55;2.10;;;21.40;99.90;;;;;;5004349;28;20769;-85
2022/06/23 11:00:32;;;;;;;2.70;2.10;;;21.50;99.90;;;;;;5025244;28;20490;-85
2022/06/23 11:03:32;;;;;;;5.05;2.22;;;21.50;99.90;;;;;;5000181;28;20401;-84
2022/06/23 11:06:29;;;;;;;3.88;2.22;;;21.40;99.90;;;;;;5029780;28;20440;-85
2022/06/23 11:09:28;;;;;;;3.25;2.10;;;21.50;99.90;;;;;;4995459;28;20407;-84
2022/06/23 11:12:04;;;;;;;3.67;1.92;;;21.70;99.90;;;;;;5032068;28;20489;-84
2022/06/23 11:14:58;;;;;;;4.18;2.08;;;21.80;99.90;;;;;;5010564;28;20777;-85
2022/06/23 11:17:42;;;;;;;4.23;2.33;;;21.90;99.90;;;;;;5011447;28;20429;-84
2022/06/23 11:20:21;;;;;;;3.17;2.00;;;21.90;99.90;;;;;;5013773;28;20405;-85
2022/06/23 11:23:18;;;;;;;3.95;2.22;;;22.00;99.90;;;;;;5011381;28;20403;-85
2022/06/23 11:26:05;;;;;;;4.03;2.22;;;22.00;99.90;;;;;;5006485;28;20399;-86
2022/06/23 11:28:55;;;;;;;4.63;2.28;;;22.00;99.90;;;;;;5024080;28;20969;-85
2022/06/23 11:31:41;;;;;;;4.22;2.08;;;22.20;99.90;;;;;;5041533;28;20403;-85
2022/06/23 11:34:28;;;;;;;3.03;1.98;;;22.20;99.90;;;;;;5015192;28;20399;-84
2022/06/23 11:37:04;;;;;;;3.70;2.37;;;22.40;99.90;;;;;;5006465;28;20463;-84
2022/06/23 11:39:56;;;;;;;4.85;2.22;;;22.40;99.90;;;;;;5028623;28;20846;-84
2022/06/23 11:42:50;;;;;;;5.50;2.35;;;22.40;99.90;;;;;;5050183;28;20847;-84
2022/06/23 11:45:40;;;;;;;45.17;40.92;;;22.50;99.90;;;;;;5021216;28;20410;-84
2022/06/23 11:48:35;;;;;;;4.18;2.42;;;22.30;99.90;;;;;;5030648;28;20382;-85
2022/06/23 11:51:26;;;;;;;7.70;2.50;;;22.20;99.90;;;;;;5028513;28;20829;-85
2022/06/23 11:54:22;;;;;;;3.53;2.20;;;22.10;99.90;;;;;;5029703;28;20397;-84
2022/06/23 11:57:16;;;;;;;28.73;18.65;;;22.00;99.90;;;;;;5043348;28;20407;-84
2022/06/23 12:00:14;;;;;;;5.82;2.72;;;21.80;99.90;;;;;;5034770;28;20492;-84
2022/06/23 12:10:08;;;;;;;5.07;2.35;;;22.70;99.90;;;;;;5032281;28;20939;-86
2022/06/23 12:12:35;;;;;;;4.15;2.25;;;22.80;99.90;;;;;;5027845;28;20406;-87
2022/06/23 12:15:05;;;;;;;3.30;2.35;;;22.90;99.90;;;;;;5009490;28;20420;-87
2022/06/23 12:17:43;;;;;;;3.17;2.10;;;23.00;99.90;;;;;;5041185;28;20974;-90
2022/06/23 12:20:32;;;;;;;3.72;2.28;;;23.00;99.90;;;;;;5005397;28;20410;-89
2022/06/23 12:23:50;;;;;;;7.32;2.40;;;22.80;99.90;;;;;;5029553;28;20393;-86
2022/06/23 12:26:38;;;;;;;3.65;2.00;;;23.10;99.90;;;;;;4995342;28;20396;-89
2022/06/23 12:29:12;;;;;;;5.95;2.20;;;23.30;99.90;;;;;;5009601;28;20405;-90
2022/06/23 12:31:51;;;;;;;4.57;2.20;;;23.60;99.90;;;;;;5023350;28;20409;-89
2022/06/23 12:34:32;;;;;;;4.05;2.33;;;23.70;99.90;;;;;;5042851;28;20769;-90
2022/06/23 12:37:37;;;;;;;5.03;2.20;;;23.70;99.90;;;;;;5034930;28;20811;-90
2022/06/23 12:40:20;;;;;;;7.13;2.17;;;23.60;99.90;;;;;;5019923;28;20909;-89
2022/06/23 12:42:54;;;;;;;4.00;2.28;;;23.30;99.90;;;;;;5041672;28;20386;-89
2022/06/23 12:45:41;;;;;;;4.60;2.40;;;23.20;99.90;;;;;;5005508;28;20419;-88
2022/06/23 12:48:44;;;;;;;6.47;2.25;;;23.30;99.90;;;;;;5042208;28;20763;-89
2022/06/23 12:51:26;;;;;;;4.43;2.00;;;23.70;99.90;;;;;;5015539;28;20393;-88
2022/06/23 12:54:26;;;;;;;4.40;2.20;;;23.80;99.90;;;;;;5026417;28;20395;-87
2022/06/23 12:57:06;;;;;;;6.43;2.13;;;24.10;99.90;;;;;;5011232;28;20852;-87
2022/06/23 12:59:58;;;;;;;3.37;2.20;;;24.20;99.90;;;;;;5001381;28;20461;-87
2022/06/23 13:02:29;;;;;;;3.80;2.20;;;24.20;99.90;;;;;;5036042;28;20442;-87
2022/06/23 13:05:39;;;;;;;3.83;2.13;;;24.20;99.90;;;;;;5016725;28;20831;-88
2022/06/23 13:08:49;;;;;;;4.03;2.20;;;24.10;99.90;;;;;;5032857;28;20403;-89
2022/06/23 13:11:40;;;;;;;3.50;2.50;;;24.00;99.90;;;;;;5040142;28;20465;-88
2022/06/23 13:14:24;;;;;;;3.27;2.30;;;24.00;99.90;;;;;;5034882;28;20399;-86
2022/06/23 13:17:05;;;;;;;5.03;2.13;;;24.10;99.90;;;;;;5008622;28;20878;-91
2022/06/23 13:19:46;;;;;;;5.10;2.35;;;24.10;99.90;;;;;;5004711;28;20413;-89
2022/06/23 13:22:45;;;;;;;4.65;2.22;;;24.30;99.90;;;;;;5030805;28;20486;-89
2022/06/23 13:25:17;;;;;;;5.25;2.42;;;24.30;99.90;;;;;;5023249;28;20410;-88
2022/06/23 13:27:50;;;;;;;4.05;2.00;;;24.50;99.90;;;;;;5025077;28;20408;-88
2022/06/23 13:30:50;;;;;;;3.20;1.92;;;24.50;99.90;;;;;;5032247;28;20892;-88
2022/06/23 13:33:44;;;;;;;3.45;2.30;;;24.80;99.90;;;;;;5035485;28;20829;-88
2022/06/23 13:36:24;;;;;;;3.97;2.22;;;24.50;99.90;;;;;;5010150;28;20401;-88
2022/06/23 13:38:59;;;;;;;4.88;2.28;;;24.40;99.90;;;;;;5019157;28;20418;-87
2022/06/23 13:41:37;;;;;;;4.53;2.53;;;24.10;99.90;;;;;;4997226;28;21015;-88
2022/06/23 13:44:20;;;;;;;6.10;2.30;;;24.30;99.90;;;;;;5020486;28;20471;-87
2022/06/23 13:46:58;;;;;;;3.50;2.20;;;24.50;99.90;;;;;;5007352;28;20411;-88
2022/06/23 13:49:33;;;;;;;4.15;2.28;;;24.70;99.90;;;;;;5034547;28;20402;-88
2022/06/23 13:52:11;;;;;;;5.00;2.33;;;24.70;99.90;;;;;;5024384;28;20459;-88
2022/06/23 13:54:54;;;;;;;4.82;2.42;;;24.90;99.90;;;;;;5040577;28;20409;-88
2022/06/23 13:57:50;;;;;;;4.72;2.60;;;25.00;99.90;;;;;;5012532;28;20496;-88
2022/06/23 14:00:25;;;;;;;4.65;2.42;;;25.00;99.90;;;;;;5005809;28;20514;-88
2022/06/23 14:03:16;;;;;;;5.07;2.30;;;24.80;99.90;;;;;;5012002;28;20751;-86
2022/06/23 14:06:06;;;;;;;3.85;2.40;;;24.60;99.90;;;;;;5011227;28;20923;-88
2022/06/23 14:08:50;;;;;;;5.00;2.47;;;24.60;99.90;;;;;;5032292;28;20871;-86
2022/06/23 14:11:46;;;;;;;3.20;2.33;;;24.70;99.90;;;;;;5030805;28;20413;-87
2022/06/23 14:14:16;;;;;;;4.80;2.67;;;24.90;99.90;;;;;;5001100;28;20407;-87
2022/06/23 14:16:58;;;;;;;4.97;2.27;;;25.10;99.90;;;;;;5021814;28;20455;-87
2022/06/23 14:19:47;;;;;;;4.90;2.40;;;25.20;99.90;;;;;;5019992;28;20464;-86
2022/06/23 14:22:25;;;;;;;2.93;2.10;;;25.30;99.90;;;;;;5046064;28;20409;-87
2022/06/23 14:25:14;;;;;;;4.00;2.50;;;25.40;99.90;;;;;;5006632;28;20773;-86
2022/06/23 14:27:57;;;;;;;3.58;2.50;;;25.50;99.90;;;;;;5043871;28;20506;-86
2022/06/23 14:30:39;;;;;;;4.32;2.30;;;25.40;99.90;;;;;;5010167;28;20405;-86
2022/06/23 14:33:10;;;;;;;4.50;2.60;;;25.50;99.90;;;;;;5045872;28;20408;-85
2022/06/23 14:36:01;;;;;;;4.00;2.40;;;25.50;99.90;;;;;;5012029;28;20411;-86